Time,TemperatureF,DewpointF,PressureIn,WindDirection,WindDirectionDegrees,WindSpeedMPH,WindSpeedGustMPH,Humidity,HourlyPrecipIn,Conditions,Clouds,dailyrainin,SoftwareType,DateUTC
2013-04-03 00:10:00,38.4,17.0,30.27,NNW,340,0.0,0.0,42,0.00,,,0.00,weatherlink.com 1.10,2013-04-03 04:10:00,
2013-04-03 00:25:00,37.2,18.0,30.27,NNW,340,0.0,0.0,46,0.00,,,0.00,weatherlink.com 1.10,2013-04-03 04:25:00,
2013-04-03 00:41:00,36.3,18.0,30.27,NNW,340,0.0,0.0,48,0.00,,,0.00,weatherlink.com 1.10,2013-04-03 04:41:00,
2013-04-03 00:56:00,35.5,20.0,30.27,SE,136,0.0,4.0,53,0.00,,,0.00,weatherlink.com 1.10,2013-04-03 04:56:00,
2013-04-03 01:11:00,35.0,20.0,30.27,SE,136,0.0,3.0,55,0.00,,,0.00,weatherlink.com 1.10,2013-04-03 05:11:00,
2013-04-03 01:26:00,34.2,19.0,30.27,SSE,164,2.0,2.0,54,0.00,,,0.00,weatherlink.com 1.10,2013-04-03 05:26:00,
2013-04-03 01:41:00,33.8,19.0,30.27,SE,141,0.0,3.0,54,0.00,,,0.00,weatherlink.com 1.10,2013-04-03 05:41:00,
2013-04-03 01:56:00,33.2,19.0,30.29,NNE,19,0.0,4.0,57,0.00,,,0.00,weatherlink.com 1.10,2013-04-03 05:56:00,
2013-04-03 02:26:00,32.5,19.0,30.29,NNE,19,0.0,0.0,59,0.00,,,0.00,weatherlink.com 1.10,2013-04-03 06:26:00,
2013-04-03 02:41:00,32.6,19.0,30.30,NE,55,0.0,3.0,57,0.00,,,0.00,weatherlink.com 1.10,2013-04-03 06:41:00,
2013-04-03 02:56:00,32.3,18.0,30.30,NE,55,0.0,0.0,56,0.00,,,0.00,weatherlink.com 1.10,2013-04-03 06:56:00,
2013-04-03 03:11:00,31.8,18.0,30.30,NE,55,0.0,0.0,57,0.00,,,0.00,weatherlink.com 1.10,2013-04-03 07:11:00,
2013-04-03 03:26:00,31.0,18.0,30.30,NE,55,0.0,1.0,59,0.00,,,0.00,weatherlink.com 1.10,2013-04-03 07:26:00,
2013-04-03 03:41:00,30.9,19.0,30.31,NE,55,0.0,1.0,62,0.00,,,0.00,weatherlink.com 1.10,2013-04-03 07:41:00,
2013-04-03 03:56:00,30.8,19.0,30.31,SE,144,0.0,2.0,62,0.00,,,0.00,weatherlink.com 1.10,2013-04-03 07:56:00,
2013-04-03 04:11:00,30.8,19.0,30.31,SE,144,0.0,0.0,62,0.00,,,0.00,weatherlink.com 1.10,2013-04-03 08:11:00,
2013-04-03 04:26:00,30.4,19.0,30.31,SE,144,0.0,1.0,63,0.00,,,0.00,weatherlink.com 1.10,2013-04-03 08:26:00,
2013-04-03 05:11:00,29.5,19.0,30.31,SE,144,0.0,1.0,64,0.00,,,0.00,weatherlink.com 1.10,2013-04-03 09:11:00,
2013-04-03 05:26:00,29.1,20.0,30.32,SE,144,0.0,2.0,68,0.00,,,0.00,weatherlink.com 1.10,2013-04-03 09:26:00,
2013-04-03 05:41:00,29.1,19.0,30.32,SE,144,0.0,2.0,67,0.00,,,0.00,weatherlink.com 1.10,2013-04-03 09:41:00,
2013-04-03 05:56:00,28.9,20.0,30.32,SE,144,0.0,1.0,68,0.00,,,0.00,weatherlink.com 1.10,2013-04-03 09:56:00,
2013-04-03 06:11:00,28.7,19.0,30.32,SE,144,0.0,1.0,68,0.00,,,0.00,weatherlink.com 1.10,2013-04-03 10:11:00,
2013-04-03 06:26:00,28.3,19.0,30.32,SE,144,0.0,0.0,69,0.00,,,0.00,weatherlink.com 1.10,2013-04-03 10:26:00,
2013-04-03 06:41:00,28.3,20.0,30.33,SE,144,0.0,0.0,71,0.00,,,0.00,weatherlink.com 1.10,2013-04-03 10:41:00,
2013-04-03 06:57:00,27.5,18.0,30.33,SE,144,0.0,0.0,67,0.00,,,0.00,weatherlink.com 1.10,2013-04-03 10:57:00,
2013-04-03 07:12:00,27.9,20.0,30.33,SE,144,0.0,2.0,72,0.00,,,0.00,weatherlink.com 1.10,2013-04-03 11:12:00,
2013-04-03 07:27:00,27.7,19.0,30.34,SE,144,0.0,2.0,71,0.00,,,0.00,weatherlink.com 1.10,2013-04-03 11:27:00,
2013-04-03 07:42:00,27.8,19.0,30.36,SE,144,0.0,2.0,70,0.00,,,0.00,weatherlink.com 1.10,2013-04-03 11:42:00,
2013-04-03 07:57:00,27.6,19.0,30.36,SE,144,2.0,3.0,71,0.00,,,0.00,weatherlink.com 1.10,2013-04-03 11:57:00,
2013-04-03 08:12:00,27.9,20.0,30.36,SE,144,0.0,1.0,73,0.00,,,0.00,weatherlink.com 1.10,2013-04-03 12:12:00,
2013-04-03 08:27:00,29.1,21.0,30.37,SE,144,0.0,0.0,71,0.00,,,0.00,weatherlink.com 1.10,2013-04-03 12:27:00,
2013-04-03 08:42:00,30.5,21.0,30.39,SE,144,0.0,0.0,68,0.00,,,0.00,weatherlink.com 1.10,2013-04-03 12:42:00,
2013-04-03 08:57:00,32.8,21.0,30.39,SE,144,0.0,1.0,62,0.00,,,0.00,weatherlink.com 1.10,2013-04-03 12:57:00,
2013-04-03 09:12:00,35.9,15.0,30.40,NW,323,4.0,4.0,42,0.00,,,0.00,weatherlink.com 1.10,2013-04-03 13:12:00,
2013-04-03 09:27:00,37.2,14.0,30.41,NNE,20,1.0,5.0,39,0.00,,,0.00,weatherlink.com 1.10,2013-04-03 13:27:00,
2013-04-03 09:42:00,38.7,13.0,30.42,NNE,19,0.0,4.0,35,0.00,,,0.00,weatherlink.com 1.10,2013-04-03 13:42:00,
2013-04-03 09:57:00,38.9,13.0,30.41,NNW,333,0.0,5.0,34,0.00,,,0.00,weatherlink.com 1.10,2013-04-03 13:57:00,
2013-04-03 10:12:00,39.4,13.0,30.41,NW,324,3.0,5.0,34,0.00,,,0.00,weatherlink.com 1.10,2013-04-03 14:12:00,
2013-04-03 10:27:00,38.9,13.0,30.41,NW,325,3.0,7.0,34,0.00,,,0.00,weatherlink.com 1.10,2013-04-03 14:27:00,
2013-04-03 10:42:00,39.7,13.0,30.42,WNW,296,6.0,6.0,33,0.00,,,0.00,weatherlink.com 1.10,2013-04-03 14:42:00,
2013-04-03 10:57:00,40.1,12.0,30.42,NNW,333,6.0,10.0,31,0.00,,,0.00,weatherlink.com 1.10,2013-04-03 14:57:00,
2013-04-03 11:12:00,40.9,12.0,30.42,NW,309,5.0,11.0,31,0.00,,,0.00,weatherlink.com 1.10,2013-04-03 15:12:00,
2013-04-03 11:27:00,41.5,13.0,30.41,NNE,32,2.0,11.0,31,0.00,,,0.00,weatherlink.com 1.10,2013-04-03 15:27:00,
2013-04-03 11:42:00,41.8,12.0,30.42,North,5,2.0,9.0,29,0.00,,,0.00,weatherlink.com 1.10,2013-04-03 15:42:00,
2013-04-03 11:57:00,42.6,13.0,30.41,NW,316,4.0,9.0,30,0.00,,,0.00,weatherlink.com 1.10,2013-04-03 15:57:00,
2013-04-03 12:12:00,42.6,13.0,30.41,NNW,336,7.0,11.0,30,0.00,,,0.00,weatherlink.com 1.10,2013-04-03 16:12:00,
2013-04-03 12:27:00,43.1,13.0,30.41,WNW,297,7.0,11.0,30,0.00,,,0.00,weatherlink.com 1.10,2013-04-03 16:27:00,
2013-04-03 12:58:00,44.0,13.0,30.39,NNW,338,6.0,8.0,29,0.00,,,0.00,weatherlink.com 1.10,2013-04-03 16:58:00,
2013-04-03 13:13:00,44.0,13.0,30.39,NW,308,9.0,13.0,28,0.00,,,0.00,weatherlink.com 1.10,2013-04-03 17:13:00,
2013-04-03 13:28:00,44.4,13.0,30.39,West,279,7.0,9.0,28,0.00,,,0.00,weatherlink.com 1.10,2013-04-03 17:28:00,
2013-04-03 13:43:00,44.7,11.0,30.39,NNW,337,4.0,12.0,25,0.00,,,0.00,weatherlink.com 1.10,2013-04-03 17:43:00,
2013-04-03 13:58:00,45.2,11.0,30.38,NE,41,3.0,10.0,25,0.00,,,0.00,weatherlink.com 1.10,2013-04-03 17:58:00,
2013-04-03 14:13:00,45.4,11.0,30.37,NW,319,3.0,11.0,25,0.00,,,0.00,weatherlink.com 1.10,2013-04-03 18:13:00,
2013-04-03 14:28:00,46.0,12.0,30.36,North,11,6.0,14.0,25,0.00,,,0.00,weatherlink.com 1.10,2013-04-03 18:28:00,
2013-04-03 14:43:00,46.0,11.0,30.37,WNW,298,3.0,15.0,24,0.00,,,0.00,weatherlink.com 1.10,2013-04-03 18:43:00,
2013-04-03 14:58:00,47.2,13.0,30.36,NE,51,5.0,10.0,25,0.00,,,0.00,weatherlink.com 1.10,2013-04-03 18:58:00,
2013-04-03 15:13:00,47.5,12.0,30.35,North,349,1.0,15.0,24,0.00,,,0.00,weatherlink.com 1.10,2013-04-03 19:13:00,
2013-04-03 15:28:00,46.4,11.0,30.36,NNW,343,4.0,15.0,24,0.00,,,0.00,weatherlink.com 1.10,2013-04-03 19:28:00,
2013-04-03 15:43:00,47.5,12.0,30.36,North,5,6.0,10.0,24,0.00,,,0.00,weatherlink.com 1.10,2013-04-03 19:43:00,
2013-04-03 15:58:00,47.4,12.0,30.37,NNW,344,4.0,14.0,24,0.00,,,0.00,weatherlink.com 1.10,2013-04-03 19:58:00,
2013-04-03 16:13:00,48.3,12.0,30.37,West,273,4.0,12.0,23,0.00,,,0.00,weatherlink.com 1.10,2013-04-03 20:13:00,
2013-04-03 16:28:00,48.1,12.0,30.36,North,355,2.0,9.0,23,0.00,,,0.00,weatherlink.com 1.10,2013-04-03 20:28:00,
2013-04-03 16:43:00,49.0,12.0,30.37,NNW,332,3.0,8.0,23,0.00,,,0.00,weatherlink.com 1.10,2013-04-03 20:43:00,
2013-04-03 16:58:00,49.2,12.0,30.36,NE,36,1.0,8.0,22,0.00,,,0.00,weatherlink.com 1.10,2013-04-03 20:58:00,
2013-04-03 17:13:00,50.4,13.0,30.36,NE,47,0.0,9.0,22,0.00,,,0.00,weatherlink.com 1.10,2013-04-03 21:13:00,
2013-04-03 17:28:00,49.2,12.0,30.36,SW,233,4.0,6.0,22,0.00,,,0.00,weatherlink.com 1.10,2013-04-03 21:28:00,
2013-04-03 17:43:00,50.3,13.0,30.36,WNW,284,3.0,10.0,22,0.00,,,0.00,weatherlink.com 1.10,2013-04-03 21:43:00,
2013-04-03 17:58:00,49.7,12.0,30.36,NNE,19,1.0,7.0,22,0.00,,,0.00,weatherlink.com 1.10,2013-04-03 21:58:00,
2013-04-03 18:13:00,50.5,14.0,30.35,NE,38,4.0,8.0,23,0.00,,,0.00,weatherlink.com 1.10,2013-04-03 22:13:00,
2013-04-03 18:28:00,48.9,13.0,30.34,NNW,334,4.0,8.0,24,0.00,,,0.00,weatherlink.com 1.10,2013-04-03 22:28:00,
2013-04-03 18:43:00,48.9,13.0,30.34,WNW,300,1.0,7.0,24,0.00,,,0.00,weatherlink.com 1.10,2013-04-03 22:43:00,
2013-04-03 18:58:00,48.6,13.0,30.34,NW,315,2.0,7.0,24,0.00,,,0.00,weatherlink.com 1.10,2013-04-03 22:58:00,
2013-04-03 19:13:00,48.4,14.0,30.33,NNW,341,4.0,8.0,25,0.00,,,0.00,weatherlink.com 1.10,2013-04-03 23:13:00,
2013-04-03 19:28:00,48.1,15.0,30.33,NE,46,3.0,5.0,26,0.00,,,0.00,weatherlink.com 1.10,2013-04-03 23:28:00,
2013-04-03 19:43:00,47.2,14.0,30.33,NE,40,0.0,10.0,26,0.00,,,0.00,weatherlink.com 1.10,2013-04-03 23:43:00,
2013-04-03 19:58:00,46.5,14.0,30.32,NNW,329,2.0,7.0,27,0.00,,,0.00,weatherlink.com 1.10,2013-04-03 23:58:00,
2013-04-03 20:13:00,45.9,15.0,30.32,North,5,3.0,7.0,29,0.00,,,0.00,weatherlink.com 1.10,2013-04-04 00:13:00,
2013-04-03 20:28:00,45.4,15.0,30.32,North,355,0.0,4.0,30,0.00,,,0.00,weatherlink.com 1.10,2013-04-04 00:28:00,
2013-04-03 20:43:00,44.9,16.0,30.32,NE,45,1.0,4.0,31,0.00,,,0.00,weatherlink.com 1.10,2013-04-04 00:43:00,
2013-04-03 20:58:00,44.3,16.0,30.32,NE,52,1.0,3.0,32,0.00,,,0.00,weatherlink.com 1.10,2013-04-04 00:58:00,
2013-04-03 21:13:00,43.8,16.0,30.32,NNE,28,1.0,3.0,32,0.00,,,0.00,weatherlink.com 1.10,2013-04-04 01:13:00,
2013-04-03 21:28:00,43.4,16.0,30.32,North,360,0.0,1.0,33,0.00,,,0.00,weatherlink.com 1.10,2013-04-04 01:28:00,
2013-04-03 21:45:00,42.8,17.0,30.32,North,351,0.0,2.0,35,0.00,,,0.00,weatherlink.com 1.10,2013-04-04 01:45:00,
2013-04-03 21:58:00,41.9,17.0,30.32,North,351,0.0,0.0,37,0.00,,,0.00,weatherlink.com 1.10,2013-04-04 01:58:00,
2013-04-03 22:13:00,41.1,18.0,30.32,North,351,0.0,0.0,39,0.00,,,0.00,weatherlink.com 1.10,2013-04-04 02:13:00,
2013-04-03 22:28:00,40.1,18.0,30.33,North,351,0.0,1.0,41,0.00,,,0.00,weatherlink.com 1.10,2013-04-04 02:28:00,
2013-04-03 22:43:00,39.8,17.0,30.34,North,351,0.0,1.0,40,0.00,,,0.00,weatherlink.com 1.10,2013-04-04 02:43:00,
2013-04-03 23:13:00,40.0,18.0,30.34,SE,144,0.0,2.0,41,0.00,,,0.00,weatherlink.com 1.10,2013-04-04 03:13:00,
2013-04-03 23:28:00,40.2,18.0,30.34,SE,142,0.0,1.0,41,0.00,,,0.00,weatherlink.com 1.10,2013-04-04 03:28:00,
2013-04-03 23:43:00,40.0,18.0,30.34,SE,142,0.0,1.0,42,0.00,,,0.00,weatherlink.com 1.10,2013-04-04 03:43:00,